Time;durP1;ratioP1;P1;durP2;ratioP2;P2;SDS_P1;SDS_P2;PMS_P1;PMS_P2;Temp;Humidity;BMP_temperature;BMP_pressure;BME280_temperature;BME280_humidity;BME280_pressure;Samples;Min_cycle;Max_cycle;Signal;HPM_P1;HPM_P2
2021/03/24 00:00:22;;;;;;;44.38;20.55;;;;;;;-0.99;100.00;96881.06;1031697;28;20027;-56
2021/03/24 00:00:52;;;;;;;42.42;20.48;;;;;;;-0.93;100.00;96895.53;1027569;28;20042;-53
2021/03/24 00:01:25;;;;;;;41.53;19.52;;;;;;;-0.92;100.00;96894.59;1027449;28;20027;-56
2021/03/24 00:01:55;;;;;;;35.95;18.45;;;;;;;-0.91;100.00;96891.09;1027643;28;20022;-55
2021/03/24 00:02:26;;;;;;;40.00;20.10;;;;;;;-0.91;100.00;96889.31;1023589;28;20074;-56
2021/03/24 00:02:57;;;;;;;37.10;18.75;;;;;;;-0.92;100.00;96889.38;1031615;28;20030;-56
2021/03/24 00:03:28;;;;;;;38.42;19.60;;;;;;;-0.92;100.00;96890.25;1027428;28;20027;-55
2021/03/24 00:03:58;;;;;;;41.30;19.60;;;;;;;-0.93;100.00;96888.56;1031507;28;20101;-56
2021/03/24 00:04:29;;;;;;;42.22;19.52;;;;;;;-0.93;100.00;96895.53;1031623;28;20080;-53
2021/03/24 00:05:00;;;;;;;36.90;19.15;;;;;;;-0.93;100.00;96891.16;1019649;29;20028;-56
2021/03/24 00:05:33;;;;;;;36.15;18.20;;;;;;;-0.93;100.00;96887.72;1031544;28;20105;-55
2021/03/24 00:06:04;;;;;;;34.95;18.92;;;;;;;-1.01;100.00;96873.34;1031668;28;20495;-56
2021/03/24 00:06:35;;;;;;;40.60;19.42;;;;;;;-0.94;100.00;96884.28;1027598;28;20018;-56
2021/03/24 00:07:06;;;;;;;44.20;19.73;;;;;;;-0.95;100.00;96895.63;1031633;28;20095;-56
2021/03/24 00:07:37;;;;;;;40.50;19.95;;;;;;;-0.97;100.00;96887.88;1031444;28;20022;-57
2021/03/24 00:08:08;;;;;;;37.00;19.08;;;;;;;-0.99;100.00;96881.91;1031725;28;20018;-56
2021/03/24 00:08:39;;;;;;;35.42;19.15;;;;;;;-0.99;100.00;96887.13;1027473;28;20023;-56
2021/03/24 00:09:12;;;;;;;40.05;20.80;;;;;;;-0.99;100.00;96892.34;1023647;28;20568;-56
2021/03/24 00:09:43;;;;;;;49.15;20.60;;;;;;;-0.99;100.00;96886.28;1031424;28;20430;-56
2021/03/24 00:10:14;;;;;;;41.30;19.55;;;;;;;-0.99;100.00;96894.09;1031582;28;20019;-56
2021/03/24 00:10:45;;;;;;;37.22;18.52;;;;;;;-1.02;100.00;96889.88;1031597;28;20504;-53
2021/03/24 00:11:15;;;;;;;37.83;19.30;;;;;;;-1.03;100.00;96888.22;1027568;28;20516;-57
2021/03/24 00:11:46;;;;;;;39.08;18.48;;;;;;;-1.01;100.00;96893.31;1023461;28;20038;-55
2021/03/24 00:12:17;;;;;;;37.65;18.88;;;;;;;-1.03;100.00;96890.81;1023567;29;20022;-56
2021/03/24 00:12:47;;;;;;;37.05;18.90;;;;;;;-1.02;100.00;96892.50;1023514;29;20027;-55
2021/03/24 00:13:20;;;;;;;36.75;19.65;;;;;;;-1.02;100.00;96889.88;1035657;28;20029;-55
2021/03/24 00:13:50;;;;;;;35.40;17.70;;;;;;;-1.01;100.00;96888.97;1031393;28;20038;-56
2021/03/24 00:14:21;;;;;;;39.70;19.90;;;;;;;-1.00;100.00;96893.25;1031641;28;20051;-56
2021/03/24 00:14:52;;;;;;;38.50;20.15;;;;;;;-1.01;100.00;96894.19;1027510;28;20537;-54
2021/03/24 00:15:22;;;;;;;40.83;19.17;;;;;;;-1.01;100.00;96893.31;1027584;28;20389;-55
2021/03/24 00:15:53;;;;;;;39.72;18.35;;;;;;;-1.01;100.00;96890.72;1031475;28;20065;-55
2021/03/24 00:16:24;;;;;;;37.08;18.98;;;;;;;-1.02;100.00;96889.88;1027569;28;20029;-55
2021/03/24 00:16:54;;;;;;;35.50;18.15;;;;;;;-1.01;100.00;96888.97;1027533;28;20097;-55
2021/03/24 00:17:25;;;;;;;35.88;18.23;;;;;;;-1.00;100.00;96888.03;1031703;28;20029;-56
2021/03/24 00:17:56;;;;;;;39.03;19.58;;;;;;;-1.02;100.00;96887.28;1027398;28;20420;-55
2021/03/24 00:18:27;;;;;;;39.53;19.33;;;;;;;-1.02;100.00;96884.66;1027483;28;20080;-56
2021/03/24 00:18:58;;;;;;;38.78;19.25;;;;;;;-1.03;100.00;96895.16;1023456;28;20038;-57
2021/03/24 00:19:29;;;;;;;36.80;18.20;;;;;;;-1.05;100.00;96884.00;1031614;28;20053;-56
2021/03/24 00:20:00;;;;;;;34.92;18.60;;;;;;;-1.03;100.00;96887.34;1031478;28;20029;-56
2021/03/24 00:20:33;;;;;;;37.17;18.85;;;;;;;-1.04;100.00;96889.13;1023625;28;20114;-56
2021/03/24 00:21:04;;;;;;;37.50;18.80;;;;;;;-1.05;100.00;96887.44;1023513;29;20019;-57
2021/03/24 00:21:35;;;;;;;38.65;19.02;;;;;;;-1.05;100.00;96887.44;1027588;28;20079;-55
2021/03/24 00:22:05;;;;;;;38.15;18.80;;;;;;;-1.06;100.00;96897.94;1031990;28;20321;-56
2021/03/24 00:22:36;;;;;;;39.15;18.35;;;;;;;-1.05;100.00;96891.81;1027537;28;20125;-54
2021/03/24 00:23:07;;;;;;;36.47;18.02;;;;;;;-1.06;100.00;96890.97;1027516;28;20082;-56
2021/03/24 00:23:37;;;;;;;45.75;20.25;;;;;;;-1.05;100.00;96887.44;1027401;28;20019;-54
2021/03/24 00:24:08;;;;;;;36.35;17.77;;;;;;;-1.06;100.00;96890.97;1027420;28;20109;-56
2021/03/24 00:24:39;;;;;;;37.08;18.95;;;;;;;-1.09;100.00;96893.75;1023618;29;20046;-56
2021/03/24 00:25:14;;;;;;;35.03;17.08;;;;;;;-1.08;100.00;96885.00;1023564;28;20030;-56
2021/03/24 00:25:45;;;;;;;35.65;17.33;;;;;;;-1.09;100.00;96890.31;1019518;28;20267;-55
2021/03/24 00:26:16;;;;;;;36.53;18.35;;;;;;;-1.08;100.00;96887.63;1027328;28;20379;-56
2021/03/24 00:26:47;;;;;;;36.15;18.30;;;;;;;-1.08;100.00;96884.16;1031484;28;20022;-56
2021/03/24 00:27:17;;;;;;;37.75;18.75;;;;;;;-1.09;100.00;96883.31;1023602;28;20042;-57
2021/03/24 00:27:49;;;;;;;35.05;17.58;;;;;;;-1.07;100.00;96885.84;1031504;28;20018;-57
2021/03/24 00:28:20;;;;;;;35.40;17.60;;;;;;;-1.08;100.00;96882.41;1019472;29;20028;-56
2021/03/24 00:28:53;;;;;;;38.60;19.95;;;;;;;-1.08;100.00;96884.16;1027956;28;20792;-57
2021/03/24 00:29:23;;;;;;;36.10;18.70;;;;;;;-1.09;100.00;96883.31;1032429;28;20022;-56
2021/03/24 00:29:54;;;;;;;44.45;20.08;;;;;;;-1.10;100.00;96881.63;1024387;28;20114;-55
2021/03/24 00:30:28;;;;;;;35.67;19.35;;;;;;;-1.15;100.00;96883.63;1032242;28;20046;-56
2021/03/24 00:30:59;;;;;;;39.28;19.58;;;;;;;-1.11;100.00;96886.94;1028450;28;20428;-55
2021/03/24 00:31:30;;;;;;;36.05;18.08;;;;;;;-1.12;100.00;96887.84;1032365;28;20250;-56
2021/03/24 00:32:00;;;;;;;36.03;19.52;;;;;;;-1.15;100.00;96887.09;1028315;28;20011;-57
2021/03/24 00:32:31;;;;;;;35.08;18.35;;;;;;;-1.16;100.00;96882.78;1032319;28;20022;-56
2021/03/24 00:33:03;;;;;;;38.70;18.95;;;;;;;-1.16;100.00;96881.97;1024825;28;20017;-56
2021/03/24 00:33:34;;;;;;;38.50;19.65;;;;;;;-1.16;100.00;96888.00;1032214;28;20073;-57
2021/03/24 00:34:04;;;;;;;36.80;18.75;;;;;;;-1.16;100.00;96871.53;1024275;29;20661;-56
2021/03/24 00:34:35;;;;;;;40.45;19.70;;;;;;;-1.18;100.00;96882.03;1028146;28;20033;-55
2021/03/24 00:35:07;;;;;;;38.70;19.80;;;;;;;-1.18;100.00;96881.19;1024298;29;20031;-56
2021/03/24 00:35:38;;;;;;;37.13;19.27;;;;;;;-1.19;100.00;96882.94;1028279;28;20010;-56
2021/03/24 00:36:09;;;;;;;38.17;19.15;;;;;;;-1.19;100.00;96877.72;1028344;28;20258;-56
2021/03/24 00:36:39;;;;;;;40.92;18.67;;;;;;;-1.17;100.00;96880.25;1032167;28;20022;-56
2021/03/24 00:37:10;;;;;;;39.25;19.05;;;;;;;-1.23;100.00;96873.63;1028244;28;20100;-56
2021/03/24 00:37:41;;;;;;;38.72;18.65;;;;;;;-1.20;100.00;96876.06;1028282;28;20018;-57
2021/03/24 00:38:12;;;;;;;37.42;18.75;;;;;;;-1.20;100.00;96875.19;1024327;28;20306;-56
2021/03/24 00:38:43;;;;;;;38.42;18.90;;;;;;;-1.21;100.00;96876.97;1024033;28;20100;-56
2021/03/24 00:39:17;;;;;;;38.72;19.90;;;;;;;-1.21;100.00;96873.53;1028261;28;20358;-56
2021/03/24 00:39:48;;;;;;;36.00;18.70;;;;;;;-1.21;100.00;96876.16;1028339;28;20447;-55
2021/03/24 00:40:24;;;;;;;38.35;18.42;;;;;;;-1.20;100.00;96880.41;1024256;28;20023;-56
2021/03/24 00:40:56;;;;;;;38.85;19.80;;;;;;;-1.22;100.00;96864.88;1028099;28;20026;-56
2021/03/24 00:41:27;;;;;;;35.30;19.27;;;;;;;-1.20;100.00;96867.38;1020406;29;20271;-55
2021/03/24 00:41:58;;;;;;;39.88;18.63;;;;;;;-1.20;100.00;96872.59;1028333;28;20515;-56
2021/03/24 00:42:30;;;;;;;39.38;17.90;;;;;;;-1.18;100.00;96870.78;1028302;28;20030;-53
2021/03/24 00:43:00;;;;;;;40.10;18.73;;;;;;;-1.26;100.00;96855.53;1028132;28;20116;-56
2021/03/24 00:43:31;;;;;;;34.13;17.83;;;;;;;-1.17;100.00;96867.22;1032140;28;20288;-55
2021/03/24 00:44:03;;;;;;;40.63;19.17;;;;;;;-1.16;100.00;96871.53;1028224;28;20461;-56
2021/03/24 00:44:33;;;;;;;37.35;17.83;;;;;;;-1.17;100.00;96870.69;1020300;29;20497;-56
2021/03/24 00:45:05;;;;;;;39.67;19.90;;;;;;;-1.17;100.00;96872.44;1028080;28;20035;-56
2021/03/24 00:45:36;;;;;;;36.63;18.08;;;;;;;-1.17;100.00;96864.63;1032290;28;20153;-56
2021/03/24 00:46:07;;;;;;;33.90;18.35;;;;;;;-1.16;100.00;96868.94;1040360;28;20487;-55
2021/03/24 00:46:38;;;;;;;38.80;19.08;;;;;;;-1.17;100.00;96872.44;1032324;28;20028;-56
2021/03/24 00:47:08;;;;;;;37.80;18.83;;;;;;;-1.17;100.00;96867.22;1032100;28;20160;-56
2021/03/24 00:47:39;;;;;;;34.67;18.83;;;;;;;-1.18;100.00;96876.00;1020372;29;20091;-56
2021/03/24 00:48:28;;;;;;;35.10;17.20;;;;;;;-1.20;100.00;96860.44;1032295;28;20025;-57
2021/03/24 00:48:59;;;;;;;;;;;;;;;-1.19;100.00;96861.25;1032536;28;20030;-55
2021/03/24 00:49:30;;;;;;;32.88;16.95;;;;;;;-1.19;100.00;96874.28;1028312;28;19906;-55
2021/03/24 00:50:01;;;;;;;36.70;17.52;;;;;;;-1.21;100.00;96874.38;1020325;29;20494;-56
2021/03/24 00:50:32;;;;;;;36.63;17.95;;;;;;;-1.20;100.00;96864.78;1020628;29;20090;-55
2021/03/24 00:51:04;;;;;;;35.72;17.83;;;;;;;-1.21;100.00;96871.75;1020259;29;20015;-55
2021/03/24 00:51:35;;;;;;;36.05;18.00;;;;;;;-1.21;100.00;96873.53;1021254;28;20251;-57
2021/03/24 00:52:06;;;;;;;34.92;17.17;;;;;;;-1.22;100.00;96862.28;1025190;28;20729;-55
2021/03/24 00:52:37;;;;;;;36.40;18.23;;;;;;;-1.21;100.00;96876.16;1028184;28;20033;-56
2021/03/24 00:53:08;;;;;;;42.05;19.98;;;;;;;-1.22;100.00;96874.44;1024158;28;20262;-53
2021/03/24 00:53:38;;;;;;;38.67;19.42;;;;;;;-1.24;100.00;96868.47;1028086;28;20034;-54
2021/03/24 00:54:09;;;;;;;39.53;18.73;;;;;;;-1.23;100.00;96870.19;1036404;28;20021;-55
2021/03/24 00:54:40;;;;;;;36.53;17.98;;;;;;;-1.24;100.00;96869.31;1028236;28;20106;-56
2021/03/24 00:55:11;;;;;;;36.92;18.95;;;;;;;-1.26;100.00;96870.34;1024172;28;20027;-56
2021/03/24 00:55:42;;;;;;;34.25;17.95;;;;;;;-1.25;100.00;96867.66;1032214;28;20105;-55
2021/03/24 00:56:13;;;;;;;36.35;18.83;;;;;;;-1.25;100.00;96865.03;1032340;28;20033;-56
2021/03/24 00:56:44;;;;;;;33.85;17.60;;;;;;;-1.27;100.00;96864.28;1028202;28;20018;-55
2021/03/24 00:57:14;;;;;;;36.53;18.23;;;;;;;-1.26;100.00;96867.72;1032182;28;20077;-55
2021/03/24 00:57:45;;;;;;;41.05;20.33;;;;;;;-1.26;100.00;96867.72;1020171;29;20023;-54
2021/03/24 00:58:17;;;;;;;38.15;18.80;;;;;;;-1.24;100.00;96868.47;1028219;28;20489;-55
2021/03/24 00:58:48;;;;;;;37.20;18.42;;;;;;;-1.24;100.00;96869.31;1040277;28;20021;-55
2021/03/24 00:59:18;;;;;;;40.13;18.52;;;;;;;-1.23;100.00;96859.75;1032224;28;20399;-55
2021/03/24 00:59:49;;;;;;;34.75;17.98;;;;;;;-1.23;100.00;96862.34;1019912;28;20035;-57
2021/03/24 01:00:30;;;;;;;31.50;16.88;;;;;;;-1.25;100.00;96859.84;1036265;28;20436;-56
2021/03/24 01:01:00;;;;;;;33.78;18.80;;;;;;;-1.25;100.00;96857.22;1028106;28;20023;-56
2021/03/24 01:01:31;;;;;;;40.03;18.38;;;;;;;-1.25;100.00;96859.00;1028357;28;20015;-56
2021/03/24 01:02:03;;;;;;;38.25;18.48;;;;;;;-1.24;100.00;96858.06;1024228;28;20015;-56
2021/03/24 01:02:34;;;;;;;39.63;18.92;;;;;;;-1.26;100.00;96863.34;1028267;28;20011;-55
2021/03/24 01:03:05;;;;;;;37.53;19.20;;;;;;;-1.25;100.00;96859.00;1032240;28;20011;-56
2021/03/24 01:03:37;;;;;;;34.92;19.15;;;;;;;-1.26;100.00;96857.31;1028138;28;20026;-55
2021/03/24 01:04:08;;;;;;;33.40;17.92;;;;;;;-1.29;100.00;96847.03;1024107;28;20047;-55
2021/03/24 01:04:40;;;;;;;36.25;17.83;;;;;;;-1.25;100.00;96861.59;1024287;29;20291;-55
2021/03/24 01:05:13;;;;;;;35.78;18.38;;;;;;;-1.26;100.00;96852.91;1028166;28;20333;-55
2021/03/24 01:05:45;;;;;;;33.45;18.27;;;;;;;-1.26;100.00;96849.50;1028280;28;20464;-56
2021/03/24 01:06:16;;;;;;;35.58;18.15;;;;;;;-1.25;100.00;96849.41;1027366;28;20141;-56
2021/03/24 01:06:47;;;;;;;36.65;18.20;;;;;;;-1.27;100.00;96847.78;1028855;28;20082;-55
2021/03/24 01:07:18;;;;;;;37.20;19.30;;;;;;;-1.29;100.00;96849.63;1028332;28;20023;-57
2021/03/24 01:07:50;;;;;;;37.08;18.95;;;;;;;-1.29;100.00;96849.63;1024190;29;20026;-56
2021/03/24 01:08:23;;;;;;;35.00;19.67;;;;;;;-1.41;100.00;96838.09;1032026;28;20504;-56
2021/03/24 01:08:55;;;;;;;38.25;19.02;;;;;;;-1.30;100.00;96854.03;1032028;28;20480;-55
2021/03/24 01:09:25;;;;;;;38.22;19.27;;;;;;;-1.31;100.00;96844.50;1024231;28;20804;-57
2021/03/24 01:09:56;;;;;;;36.75;18.60;;;;;;;-1.33;100.00;96844.59;1036218;28;20264;-56
2021/03/24 01:10:29;;;;;;;33.75;18.08;;;;;;;-1.33;100.00;96851.56;1027995;28;20026;-56
2021/03/24 01:11:00;;;;;;;36.30;19.00;;;;;;;-1.33;100.00;96847.19;1028237;28;20029;-56
2021/03/24 01:11:31;;;;;;;37.40;18.30;;;;;;;-1.35;100.00;96849.03;1028189;28;20655;-56
2021/03/24 01:12:03;;;;;;;39.20;19.40;;;;;;;-1.36;100.00;96847.38;1032194;28;20424;-56
2021/03/24 01:12:34;;;;;;;35.72;19.40;;;;;;;-1.36;100.00;96839.56;1028098;28;20026;-57
2021/03/24 01:13:04;;;;;;;42.33;20.65;;;;;;;-1.38;100.00;96845.75;1028108;28;20094;-56
2021/03/24 01:13:35;;;;;;;39.92;19.40;;;;;;;-1.44;100.00;96839.09;1020233;28;20023;-54
2021/03/24 01:14:07;;;;;;;39.95;21.98;;;;;;;-1.39;100.00;96844.91;1024128;29;20031;-56
2021/03/24 01:14:38;;;;;;;38.67;19.33;;;;;;;-1.47;100.00;96839.25;1028000;28;20019;-57
2021/03/24 01:15:09;;;;;;;36.03;18.48;;;;;;;-1.39;100.00;96847.53;1032170;28;20014;-56
2021/03/24 01:15:40;;;;;;;40.63;19.30;;;;;;;-1.40;100.00;96848.44;1028258;28;20023;-56
2021/03/24 01:16:11;;;;;;;38.38;19.83;;;;;;;-1.42;100.00;96844.25;1028223;28;20460;-55
2021/03/24 01:16:42;;;;;;;46.88;21.02;;;;;;;-1.42;100.00;96849.44;1032132;28;20037;-55
2021/03/24 01:17:13;;;;;;;41.17;20.27;;;;;;;-1.52;100.00;96836.88;1020271;28;20526;-56
2021/03/24 01:17:44;;;;;;;36.03;19.27;;;;;;;-1.51;100.00;96835.13;1032214;28;20010;-55
2021/03/24 01:18:15;;;;;;;40.33;19.95;;;;;;;-1.44;100.00;96841.72;1028311;28;20022;-55
2021/03/24 01:18:46;;;;;;;39.58;19.48;;;;;;;-1.45;100.00;96845.22;1020086;29;20398;-55
2021/03/24 01:19:16;;;;;;;43.67;19.17;;;;;;;-1.45;100.00;96845.22;1032166;28;20260;-57
2021/03/24 01:19:47;;;;;;;44.70;19.67;;;;;;;-1.46;100.00;96848.78;1024136;28;20134;-56
2021/03/24 01:20:18;;;;;;;37.70;19.75;;;;;;;-1.46;100.00;96840.97;1028223;28;20023;-56
2021/03/24 01:20:49;;;;;;;43.22;20.80;;;;;;;-1.46;100.00;96848.78;1032074;28;20014;-55
2021/03/24 01:21:20;;;;;;;40.13;19.73;;;;;;;-1.48;100.00;96845.41;1028342;28;20501;-56
2021/03/24 01:21:51;;;;;;;41.47;20.10;;;;;;;-1.48;100.00;96844.53;1032286;28;20502;-57
2021/03/24 01:22:21;;;;;;;39.78;19.98;;;;;;;-1.49;100.00;96843.72;1024135;28;20034;-55
2021/03/24 01:22:54;;;;;;;41.88;19.50;;;;;;;-1.49;100.00;96845.47;1028102;28;20023;-52
2021/03/24 01:23:24;;;;;;;38.50;20.27;;;;;;;-1.50;100.00;96849.81;1032233;28;20033;-56
2021/03/24 01:23:55;;;;;;;38.45;18.73;;;;;;;-1.49;100.00;96854.13;1028169;28;20026;-56
2021/03/24 01:24:26;;;;;;;42.47;20.25;;;;;;;-1.50;100.00;96847.22;1028171;28;20583;-57
2021/03/24 01:24:58;;;;;;;40.63;19.92;;;;;;;-1.50;100.00;96849.81;1024065;28;20150;-56
2021/03/24 01:25:29;;;;;;;38.40;18.70;;;;;;;-1.51;100.00;96842.97;1024159;29;20022;-54
2021/03/24 01:26:00;;;;;;;43.70;19.65;;;;;;;-1.52;100.00;96844.69;1024174;28;20590;-56
2021/03/24 01:26:30;;;;;;;37.85;19.38;;;;;;;-1.50;100.00;96846.38;1024294;28;20067;-55
2021/03/24 01:27:01;;;;;;;35.55;19.85;;;;;;;-1.52;100.00;96849.91;1016200;29;20036;-55
2021/03/24 01:27:33;;;;;;;40.05;19.15;;;;;;;-1.53;100.00;96845.63;1032275;28;20337;-56
2021/03/24 01:28:05;;;;;;;36.75;19.13;;;;;;;-1.54;100.00;96841.34;1028244;28;20468;-56
2021/03/24 01:28:36;;;;;;;42.28;20.10;;;;;;;-1.57;100.00;96845.88;1024290;28;20034;-56
2021/03/24 01:29:07;;;;;;;39.10;19.65;;;;;;;-1.54;100.00;96848.31;1035913;28;20376;-56
2021/03/24 01:29:38;;;;;;;45.88;19.92;;;;;;;-1.53;100.00;96852.63;1028433;28;20098;-55
2021/03/24 01:30:10;;;;;;;34.85;18.00;;;;;;;-1.54;100.00;96849.16;1020269;29;20020;-54
2021/03/24 01:30:40;;;;;;;35.90;19.52;;;;;;;-1.54;100.00;96848.31;1032258;28;20412;-56
2021/03/24 01:31:11;;;;;;;36.70;18.90;;;;;;;-1.54;100.00;96845.72;1032210;28;20022;-55
2021/03/24 01:31:42;;;;;;;39.20;19.10;;;;;;;-1.56;100.00;96853.59;1029943;28;20022;-55
2021/03/24 01:32:13;;;;;;;42.25;19.98;;;;;;;-1.56;100.00;96844.94;1036134;28;20018;-57
2021/03/24 01:32:44;;;;;;;34.72;18.95;;;;;;;-1.57;100.00;96851.94;1028089;28;20026;-56
2021/03/24 01:33:15;;;;;;;35.08;19.10;;;;;;;-1.56;100.00;96847.56;1031873;28;20022;-57
2021/03/24 01:33:45;;;;;;;43.63;19.50;;;;;;;-1.57;100.00;96851.06;1031617;28;20025;-57
2021/03/24 01:34:16;;;;;;;40.63;18.98;;;;;;;-1.57;100.00;96853.66;1031682;28;20023;-54
2021/03/24 01:34:47;;;;;;;39.53;20.00;;;;;;;-1.58;100.00;96852.00;1020549;29;20388;-56
2021/03/24 01:35:18;;;;;;;37.33;18.35;;;;;;;-1.58;100.00;96849.41;1028342;29;20023;-57
2021/03/24 01:35:49;;;;;;;35.15;19.48;;;;;;;-1.58;100.00;96849.41;1032536;28;20018;-56
2021/03/24 01:36:19;;;;;;;37.33;18.52;;;;;;;-1.57;100.00;96851.06;1032690;28;20015;-57
2021/03/24 01:36:50;;;;;;;38.63;19.27;;;;;;;-1.57;100.00;96845.88;1028080;28;20046;-56
2021/03/24 01:37:21;;;;;;;36.30;19.85;;;;;;;-1.58;100.00;96847.63;1024178;28;20060;-55
2021/03/24 01:37:52;;;;;;;40.22;20.40;;;;;;;-1.57;100.00;96845.88;1032397;28;20033;-55
2021/03/24 01:38:22;;;;;;;36.53;18.85;;;;;;;-1.59;100.00;96850.31;1032306;28;20018;-55
2021/03/24 01:38:53;;;;;;;44.17;20.65;;;;;;;-1.57;100.00;96851.06;1024127;29;20050;-55
2021/03/24 01:39:24;;;;;;;39.38;20.00;;;;;;;-1.57;100.00;96851.06;1032063;28;20097;-54
2021/03/24 01:39:55;;;;;;;39.70;19.10;;;;;;;-1.57;100.00;96851.94;1031625;28;20403;-55
2021/03/24 01:40:28;;;;;;;43.60;21.55;;;;;;;-1.56;100.00;96851.00;1035655;28;20018;-55
2021/03/24 01:41:00;;;;;;;41.70;19.80;;;;;;;-1.59;100.00;96848.53;1024027;28;20424;-56
2021/03/24 01:41:30;;;;;;;40.50;20.40;;;;;;;-1.57;100.00;96851.06;1028016;28;20033;-56
2021/03/24 01:42:02;;;;;;;38.65;20.48;;;;;;;-1.58;100.00;96852.84;1028293;28;20381;-57
2021/03/24 01:42:33;;;;;;;43.75;20.48;;;;;;;-1.58;100.00;96855.44;1024133;28;20012;-55
2021/03/24 01:43:07;;;;;;;43.95;21.08;;;;;;;-1.59;100.00;96848.53;1028027;28;20341;-54
2021/03/24 01:43:38;;;;;;;45.42;22.30;;;;;;;-1.58;100.00;96859.81;1031739;28;20401;-54
2021/03/24 01:44:09;;;;;;;46.92;22.05;;;;;;;-1.58;100.00;96854.63;1032163;28;20145;-54
2021/03/24 01:44:59;;;;;;;42.08;20.85;;;;;;;-1.57;100.00;96851.06;1032045;28;20022;-56
2021/03/24 01:45:30;;;;;;;43.63;20.20;;;;;;;-1.57;100.00;96851.06;1032164;28;20026;-56
2021/03/24 01:46:22;;;;;;;42.65;20.33;;;;;;;-1.58;100.00;96855.44;1032060;28;20291;-55
2021/03/24 01:46:53;;;;;;;47.38;19.75;;;;;;;-1.57;100.00;96851.06;1036166;28;20293;-53
2021/03/24 01:47:23;;;;;;;39.05;19.92;;;;;;;-1.57;100.00;96856.28;1036117;28;20261;-55
2021/03/24 01:47:54;;;;;;;37.45;19.77;;;;;;;-1.57;100.00;96853.66;1027964;28;20033;-56
2021/03/24 01:48:25;;;;;;;44.92;21.65;;;;;;;-1.57;100.00;96848.47;1024089;29;20023;-55
2021/03/24 01:49:07;;;;;;;44.67;22.70;;;;;;;-1.57;100.00;96857.16;1031841;28;20084;-57
2021/03/24 01:49:38;;;;;;;39.97;21.58;;;;;;;-1.59;100.00;96848.53;1032082;28;20022;-56
2021/03/24 01:50:23;;;;;;;46.80;20.58;;;;;;;-1.60;100.00;96846.88;1024067;28;20011;-55
2021/03/24 01:50:53;;;;;;;43.67;20.30;;;;;;;-1.59;100.00;96853.75;1036088;28;20045;-56
2021/03/24 01:51:27;;;;;;;44.85;19.75;;;;;;;-1.59;100.00;96850.31;1028046;28;20271;-56
2021/03/24 01:51:59;;;;;;;40.78;20.17;;;;;;;-1.58;100.00;96850.25;1020008;29;20419;-55
2021/03/24 01:52:30;;;;;;;41.42;20.02;;;;;;;-1.59;100.00;96856.34;1020351;29;20020;-55
2021/03/24 01:53:01;;;;;;;47.38;21.95;;;;;;;-1.59;100.00;96850.31;1027952;28;20115;-56
2021/03/24 01:53:33;;;;;;;42.15;19.85;;;;;;;-1.60;100.00;96848.63;1028022;28;20101;-56
2021/03/24 01:54:06;;;;;;;38.30;19.67;;;;;;;-1.59;100.00;96853.75;1023894;28;20417;-56
2021/03/24 01:54:39;;;;;;;39.47;20.45;;;;;;;-1.58;100.00;96854.63;1032072;28;20022;-55
2021/03/24 01:55:10;;;;;;;42.17;21.60;;;;;;;-1.61;100.00;96849.56;1032186;28;20338;-57
2021/03/24 01:55:41;;;;;;;45.40;21.40;;;;;;;-1.62;100.00;96851.31;1028834;28;20018;-55
2021/03/24 01:56:12;;;;;;;41.97;19.73;;;;;;;-1.62;100.00;96847.84;1023988;28;20023;-56
2021/03/24 01:56:44;;;;;;;42.00;19.85;;;;;;;-1.61;100.00;96849.56;1024146;28;20098;-57
2021/03/24 01:57:19;;;;;;;49.85;21.25;;;;;;;-1.62;100.00;96845.25;1024087;29;20322;-56
2021/03/24 01:57:49;;;;;;;45.75;20.58;;;;;;;-1.64;100.00;96844.50;1024066;29;20026;-55
2021/03/24 01:58:20;;;;;;;38.40;19.08;;;;;;;-1.65;100.00;96843.66;1027952;28;20528;-54
2021/03/24 01:58:51;;;;;;;42.80;21.48;;;;;;;-1.64;100.00;96854.91;1028075;28;20117;-56
2021/03/24 01:59:21;;;;;;;43.85;20.55;;;;;;;-1.68;100.00;96856.84;1028082;28;20428;-56
2021/03/24 01:59:53;;;;;;;44.30;20.83;;;;;;;-1.68;100.00;96842.97;1028221;28;20492;-54
2021/03/24 02:00:31;;;;;;;38.50;21.10;;;;;;;-1.72;100.00;96850.09;1028098;28;20373;-56
2021/03/24 02:01:05;;;;;;;45.58;21.58;;;;;;;-1.74;100.00;96847.56;1025301;28;20019;-55
2021/03/24 02:01:36;;;;;;;46.50;21.80;;;;;;;-1.75;100.00;96856.28;1033764;28;20019;-57
2021/03/24 02:02:16;;;;;;;45.20;21.50;;;;;;;-1.76;100.00;96846.81;1036080;28;20018;-56
2021/03/24 02:02:47;;;;;;;49.38;21.63;;;;;;;-1.77;100.00;96844.28;1032122;28;20022;-55
2021/03/24 02:03:22;;;;;;;38.22;19.63;;;;;;;-1.77;100.00;96849.50;1024051;28;20018;-56
2021/03/24 02:03:53;;;;;;;51.13;21.70;;;;;;;-1.77;100.00;96849.50;1023833;29;20115;-52
2021/03/24 02:04:24;;;;;;;47.25;21.60;;;;;;;-1.79;100.00;96852.19;1027864;28;20021;-56
2021/03/24 02:04:55;;;;;;;48.22;22.27;;;;;;;-1.79;100.00;96844.38;1023836;28;20397;-56
2021/03/24 02:05:26;;;;;;;45.20;22.73;;;;;;;-1.79;100.00;96854.78;1020041;28;20047;-55
2021/03/24 02:05:57;;;;;;;54.35;23.15;;;;;;;-1.80;100.00;96845.28;1019916;29;20258;-55
2021/03/24 02:06:41;;;;;;;49.70;21.00;;;;;;;-1.81;100.00;96853.16;1027831;28;20054;-54
2021/03/24 02:07:23;;;;;;;46.55;22.00;;;;;;;-1.86;100.00;96850.81;1036024;28;20261;-56
2021/03/24 02:08:00;;;;;;;46.65;21.67;;;;;;;-1.84;100.00;96853.34;1024104;29;20512;-54
2021/03/24 02:08:33;;;;;;;44.35;20.42;;;;;;;-1.83;100.00;96855.00;1027928;28;20019;-55
2021/03/24 02:09:16;;;;;;;49.83;22.20;;;;;;;-1.84;100.00;96855.94;1024004;29;20015;-55
2021/03/24 02:09:59;;;;;;;47.25;23.40;;;;;;;-1.86;100.00;96853.41;1028044;28;20314;-55
2021/03/24 02:10:35;;;;;;;47.45;22.08;;;;;;;-1.85;100.00;96857.69;1024138;28;20785;-57
2021/03/24 02:11:16;;;;;;;53.15;22.73;;;;;;;-1.89;100.00;96850.94;1024213;28;20339;-55
2021/03/24 02:12:07;;;;;;;51.42;22.63;;;;;;;-1.90;100.00;96851.84;1032331;28;20266;-56
2021/03/24 02:12:49;;;;;;;52.55;22.75;;;;;;;-2.20;100.00;96800.44;1024082;28;20023;-55
2021/03/24 02:13:24;;;;;;;47.70;22.20;;;;;;;-1.90;100.00;96851.84;1028175;28;20306;-55
2021/03/24 02:14:00;;;;;;;47.08;21.70;;;;;;;-1.92;100.00;96849.31;1028046;28;20262;-57
2021/03/24 02:14:35;;;;;;;41.55;20.65;;;;;;;-1.92;100.00;96843.28;1023944;29;20445;-56
2021/03/24 02:15:10;;;;;;;47.00;21.70;;;;;;;-1.95;100.00;96844.28;1031904;28;20253;-56
2021/03/24 02:15:45;;;;;;;50.00;21.70;;;;;;;-1.95;100.00;96848.63;1027895;28;20378;-56
2021/03/24 02:16:21;;;;;;;47.58;21.75;;;;;;;-1.96;100.00;96844.38;1023890;29;20261;-55
2021/03/24 02:16:53;;;;;;;43.83;22.05;;;;;;;-1.95;100.00;96856.44;1015884;29;20700;-52
2021/03/24 02:17:26;;;;;;;45.90;22.23;;;;;;;-1.96;100.00;96855.63;1023865;29;20303;-55
2021/03/24 02:17:57;;;;;;;50.20;23.30;;;;;;;-1.97;100.00;96856.56;1031889;28;20324;-57
2021/03/24 02:18:29;;;;;;;49.08;23.15;;;;;;;-1.96;100.00;96846.97;1035966;28;20563;-55
2021/03/24 02:19:03;;;;;;;48.47;21.00;;;;;;;-1.97;100.00;96853.94;1027828;28;20308;-56
2021/03/24 02:19:47;;;;;;;50.90;21.10;;;;;;;-1.98;100.00;96854.84;1027905;28;20022;-56
2021/03/24 02:20:31;;;;;;;43.72;21.50;;;;;;;-1.98;100.00;96849.66;1031854;28;20761;-56
2021/03/24 02:21:06;;;;;;;50.72;21.02;;;;;;;-2.00;100.00;96853.22;1039782;28;20264;-55
2021/03/24 02:21:37;;;;;;;46.83;22.35;;;;;;;-2.01;100.00;96856.78;1031934;28;20787;-55
2021/03/24 02:22:08;;;;;;;50.58;22.33;;;;;;;-2.06;100.00;96848.34;1023880;28;20266;-55
2021/03/24 02:22:43;;;;;;;52.00;22.63;;;;;;;-2.02;100.00;96857.69;1032016;28;20068;-54
2021/03/24 02:23:26;;;;;;;54.47;22.25;;;;;;;-2.01;100.00;96848.97;1027667;28;20018;-55
2021/03/24 02:24:08;;;;;;;48.20;22.45;;;;;;;-2.02;100.00;96850.72;1019751;29;20272;-55
2021/03/24 02:24:51;;;;;;;43.40;20.58;;;;;;;-2.03;100.00;96854.25;1023940;28;20637;-55
2021/03/24 02:25:29;;;;;;;43.67;21.15;;;;;;;-2.04;100.00;96857.75;1031842;28;20090;-56
2021/03/24 02:26:12;;;;;;;50.67;22.58;;;;;;;-2.07;100.00;96855.31;1031859;28;20294;-55
2021/03/24 02:26:46;;;;;;;49.15;21.50;;;;;;;-2.09;100.00;96846.72;1031920;28;20257;-55
2021/03/24 02:27:19;;;;;;;45.13;20.70;;;;;;;-2.10;100.00;96856.28;1027769;28;20269;-56